createdAt,value
2019-02-16T00:01:02.318Z,2.55
2019-02-16T00:03:13.252Z,2.46
2019-02-16T00:05:24.080Z,2.46
2019-02-16T00:07:34.892Z,2.40
2019-02-16T00:09:45.876Z,2.33
2019-02-16T00:11:56.678Z,2.22
2019-02-16T00:14:07.499Z,2.09
2019-02-16T00:16:18.304Z,2.00
2019-02-16T00:18:29.191Z,1.90
2019-02-16T00:20:40.023Z,1.93
2019-02-16T00:22:50.865Z,1.95
2019-02-16T00:25:01.790Z,1.98
2019-02-16T00:27:12.581Z,2.00
2019-02-16T00:29:23.380Z,2.00
2019-02-16T00:31:34.220Z,1.97
2019-02-16T00:33:45.017Z,1.87
2019-02-16T00:35:55.829Z,1.81
2019-02-16T00:38:06.629Z,1.76
2019-02-16T00:40:17.449Z,1.68
2019-02-16T00:42:28.274Z,1.63
2019-02-16T00:44:39.106Z,1.59
2019-02-16T00:46:49.932Z,1.62
2019-02-16T00:49:00.716Z,1.60
2019-02-16T00:51:13.938Z,1.59
2019-02-16T00:53:24.271Z,1.56
2019-02-16T00:55:35.063Z,1.50
2019-02-16T00:57:45.925Z,1.45
2019-02-16T00:59:56.750Z,1.46
2019-02-16T01:02:07.565Z,1.47
2019-02-16T01:04:18.398Z,1.52
2019-02-16T01:06:29.213Z,1.50
2019-02-16T01:08:40.018Z,1.45
2019-02-16T01:10:50.815Z,1.42
2019-02-16T01:13:01.678Z,1.35
2019-02-16T01:15:12.584Z,1.27
2019-02-16T01:17:23.406Z,1.27
2019-02-16T01:19:34.211Z,1.29
2019-02-16T01:21:45.013Z,1.29
2019-02-16T01:23:55.829Z,1.35
2019-02-16T01:26:06.633Z,1.40
2019-02-16T01:28:17.459Z,1.43
2019-02-16T01:30:28.238Z,1.46
2019-02-16T01:32:39.049Z,1.42
2019-02-16T01:34:49.868Z,1.34
2019-02-16T01:37:00.677Z,1.29
2019-02-16T01:39:11.503Z,1.25
2019-02-16T01:41:22.293Z,1.22
2019-02-16T01:43:33.111Z,1.18
2019-02-16T01:45:43.909Z,1.24
2019-02-16T01:47:54.715Z,1.33
2019-02-16T01:50:47.184Z,1.41
2019-02-16T01:52:57.988Z,1.43
2019-02-16T01:55:08.901Z,1.41
2019-02-16T01:57:19.692Z,1.41
2019-02-16T01:59:30.497Z,1.42
2019-02-16T02:01:41.309Z,1.39
2019-02-16T02:03:52.114Z,1.39
2019-02-16T02:06:02.927Z,1.37
2019-02-16T02:08:13.722Z,1.25
2019-02-16T02:10:24.532Z,1.07
2019-02-16T02:12:35.340Z,0.93
2019-02-16T02:14:46.171Z,0.92
2019-02-16T02:16:57.032Z,0.87
2019-02-16T02:19:07.859Z,0.82
2019-02-16T02:21:18.646Z,0.77
2019-02-16T02:23:29.427Z,0.73
2019-02-16T02:25:40.252Z,0.70
2019-02-16T02:27:51.052Z,0.71
2019-02-16T02:32:40.609Z,0.48
2019-02-16T02:34:51.429Z,0.57
2019-02-16T02:37:02.248Z,0.62
2019-02-16T02:39:13.051Z,0.67
2019-02-16T02:41:23.856Z,0.72
2019-02-16T02:43:34.676Z,0.80
2019-02-16T02:45:45.498Z,0.82
2019-02-16T02:47:56.313Z,0.85
2019-02-16T02:50:07.331Z,0.86
2019-02-16T02:52:18.159Z,0.87
2019-02-16T02:54:28.944Z,0.91
2019-02-16T02:56:39.882Z,0.90
2019-02-16T02:58:50.651Z,0.86
2019-02-16T03:01:01.614Z,0.76
2019-02-16T03:03:12.511Z,0.65
2019-02-16T03:05:23.346Z,0.64
2019-02-16T03:07:34.146Z,0.60
2019-02-16T03:09:44.932Z,0.54
2019-02-16T03:11:55.796Z,0.54
2019-02-16T03:14:06.617Z,0.59
2019-02-16T03:16:37.314Z,0.68
2019-02-16T03:18:48.127Z,0.68
2019-02-16T03:20:58.941Z,0.67
2019-02-16T03:23:51.420Z,0.60
2019-02-16T03:26:41.970Z,0.60
2019-02-16T03:29:32.498Z,0.46
2019-02-16T03:32:23.063Z,0.44
2019-02-16T03:35:15.513Z,0.52
2019-02-16T03:38:07.972Z,0.60
2019-02-16T03:40:18.763Z,0.62
2019-02-16T03:42:29.574Z,0.68
2019-02-16T03:44:40.373Z,0.70
2019-02-16T03:46:51.178Z,0.68
2019-02-16T03:49:01.987Z,0.69
2019-02-16T03:51:12.767Z,0.62
2019-02-16T03:53:23.586Z,0.59
2019-02-16T03:55:34.378Z,0.50
2019-02-16T03:57:45.182Z,0.46
2019-02-16T03:59:55.973Z,0.50
2019-02-16T04:02:06.783Z,0.48
2019-02-16T04:04:17.584Z,0.44
2019-02-16T04:06:28.390Z,0.45
2019-02-16T04:08:39.194Z,0.48
2019-02-16T04:10:49.981Z,0.52
2019-02-16T04:13:00.816Z,0.33
2019-02-16T04:15:11.716Z,0.29
2019-02-16T04:17:22.519Z,0.28
2019-02-16T04:19:33.321Z,0.21
2019-02-16T04:21:44.124Z,0.18
2019-02-16T04:23:54.934Z,0.15
2019-02-16T04:26:25.633Z,0.12
2019-02-16T04:28:36.426Z,0.12
2019-02-16T04:30:47.229Z,0.21
2019-02-16T04:32:58.123Z,0.28
2019-02-16T04:35:08.934Z,0.32
2019-02-16T04:37:19.725Z,0.39
2019-02-16T04:39:30.533Z,0.46
2019-02-16T04:42:01.218Z,0.51
2019-02-16T04:44:12.033Z,0.51
2019-02-16T04:46:22.834Z,0.53
2019-02-16T04:48:33.630Z,0.57
2019-02-16T04:50:44.451Z,0.47
2019-02-16T04:52:55.240Z,0.41
2019-02-16T04:55:47.698Z,0.41
2019-02-16T04:57:58.498Z,0.38
2019-02-16T05:00:09.457Z,0.37
2019-02-16T05:02:20.257Z,0.40
2019-02-16T05:04:31.062Z,0.44
2019-02-16T05:06:41.876Z,0.43
2019-02-16T05:08:52.679Z,0.23
2019-02-16T05:11:03.500Z,0.22
2019-02-16T05:13:14.393Z,0.32
2019-02-16T05:15:25.171Z,0.43
2019-02-16T05:17:35.979Z,0.51
2019-02-16T05:19:46.778Z,0.59
2019-02-16T05:21:57.593Z,0.65
2019-02-16T05:24:08.400Z,0.63
2019-02-16T05:26:19.224Z,0.58
2019-02-16T05:28:30.029Z,0.51
2019-02-16T05:30:40.827Z,0.36
2019-02-16T05:32:51.697Z,0.31
2019-02-16T05:35:44.143Z,0.25
2019-02-16T05:37:54.957Z,0.24
2019-02-16T05:40:47.408Z,0.11
2019-02-16T05:42:58.215Z,0.13
2019-02-16T05:45:09.230Z,0.04
2019-02-16T05:47:20.039Z,0.04
2019-02-16T05:49:30.840Z,-0.02
2019-02-16T05:51:41.650Z,0.02
2019-02-16T05:53:52.440Z,0.03
2019-02-16T05:56:03.237Z,0.00
2019-02-16T05:58:14.043Z,-0.02
2019-02-16T06:02:57.232Z,0.19
2019-02-16T06:05:08.055Z,0.77
2019-02-16T06:07:18.892Z,0.83
2019-02-16T06:09:29.690Z,0.66
2019-02-16T06:11:40.530Z,0.66
2019-02-16T06:13:51.335Z,0.56
2019-02-16T06:16:02.140Z,0.48
2019-02-16T06:18:12.961Z,0.46
2019-02-16T06:20:23.754Z,0.36
2019-02-16T06:22:34.567Z,0.19
2019-02-16T06:24:45.375Z,0.03
2019-02-16T06:26:56.232Z,-0.02
2019-02-16T06:29:07.028Z,-0.02
2019-02-16T06:31:17.832Z,0.01
2019-02-16T06:33:28.658Z,0.07
2019-02-16T06:38:11.844Z,0.04
2019-02-16T06:40:22.644Z,0.08
2019-02-16T06:42:33.466Z,0.12
2019-02-16T06:45:25.900Z,0.19
2019-02-16T06:47:36.742Z,0.26
2019-02-16T06:49:47.527Z,0.28
2019-02-16T06:51:58.315Z,0.32
2019-02-16T06:54:09.151Z,0.17
2019-02-16T06:58:52.331Z,0.32
2019-02-16T07:01:03.141Z,0.43
2019-02-16T07:03:13.993Z,0.51
2019-02-16T07:05:24.807Z,0.59
2019-02-16T07:07:35.654Z,0.69
2019-02-16T07:09:46.501Z,0.78
2019-02-16T07:11:57.311Z,0.88
2019-02-16T07:14:08.149Z,0.98
2019-02-16T07:19:11.188Z,1.16
2019-02-16T07:21:21.994Z,1.26
2019-02-16T07:23:32.800Z,1.32
2019-02-16T07:26:04.936Z,1.39
2019-02-16T07:28:16.216Z,1.39
2019-02-16T07:30:27.047Z,1.47
2019-02-16T07:32:37.852Z,1.51
2019-02-16T07:34:48.700Z,1.57
2019-02-16T07:36:59.485Z,1.59
2019-02-16T07:39:10.307Z,1.61
2019-02-16T07:41:21.116Z,1.62
2019-02-16T07:46:24.165Z,1.72
2019-02-16T07:48:54.852Z,1.82
2019-02-16T07:51:25.660Z,2.12
2019-02-16T07:53:56.352Z,2.83
2019-02-16T08:01:04.438Z,5.68
2019-02-16T08:03:35.825Z,6.36
2019-02-16T08:06:06.587Z,7.03
2019-02-16T08:08:37.299Z,7.68
2019-02-16T08:13:26.982Z,8.46
2019-02-16T08:18:30.058Z,8.88
2019-02-16T08:21:00.762Z,9.12
2019-02-16T08:26:03.828Z,9.49
2019-02-16T08:31:06.894Z,9.84
2019-02-16T08:33:37.587Z,10.06
2019-02-16T08:36:08.260Z,10.40
2019-02-16T08:38:38.958Z,10.51
2019-02-16T08:41:09.638Z,10.61
2019-02-16T08:46:02.669Z,10.91
2019-02-16T08:50:51.994Z,11.29
2019-02-16T08:53:22.706Z,11.47
2019-02-16T08:55:53.377Z,11.69
2019-02-16T09:00:46.270Z,11.85
2019-02-16T09:03:16.977Z,11.90
2019-02-16T09:05:47.674Z,11.95
2019-02-16T09:08:18.385Z,11.93
2019-02-16T09:13:21.426Z,11.98
2019-02-16T09:15:52.143Z,12.08
2019-02-16T09:23:00.179Z,12.61
2019-02-16T09:25:31.079Z,12.76
2019-02-16T09:30:34.240Z,12.99
2019-02-16T09:33:04.924Z,13.06
2019-02-16T09:35:35.637Z,13.14
2019-02-16T09:38:06.329Z,13.18
2019-02-16T09:42:55.730Z,13.41
2019-02-16T09:45:26.554Z,13.59
2019-02-16T09:47:57.245Z,13.76
2019-02-16T09:50:28.276Z,13.83
2019-02-16T09:52:59.015Z,13.92
2019-02-16T09:55:29.736Z,13.93
2019-02-16T09:58:00.491Z,14.04
2019-02-16T10:00:31.197Z,14.11
2019-02-16T10:03:01.888Z,14.25
2019-02-16T10:07:54.760Z,13.97
2019-02-16T10:12:44.239Z,14.07
2019-02-16T10:15:14.977Z,14.11
2019-02-16T10:17:45.670Z,14.29
2019-02-16T10:20:16.337Z,14.33
2019-02-16T10:25:05.410Z,14.30
2019-02-16T10:27:36.105Z,14.35
2019-02-16T10:30:06.805Z,14.36
2019-02-16T10:32:37.485Z,14.37
2019-02-16T10:35:08.166Z,14.24
2019-02-16T10:39:57.753Z,14.38
2019-02-16T10:42:28.468Z,14.37
2019-02-16T10:44:59.146Z,14.52
2019-02-16T10:52:28.860Z,14.54
2019-02-16T10:57:31.912Z,14.59
2019-02-16T11:00:02.596Z,14.70
2019-02-16T11:09:33.480Z,15.15
2019-02-16T11:14:36.840Z,15.09
2019-02-16T11:17:07.532Z,15.24
2019-02-16T11:19:38.227Z,15.25
2019-02-16T11:22:08.907Z,15.26
2019-02-16T11:29:20.816Z,15.22
2019-02-16T11:31:51.491Z,15.18
2019-02-16T11:34:22.183Z,15.25
2019-02-16T11:41:48.016Z,15.50
2019-02-16T11:44:18.700Z,15.56
2019-02-16T11:46:49.377Z,15.65
2019-02-16T11:51:38.848Z,15.66
2019-02-16T11:54:09.564Z,15.73
2019-02-16T12:03:50.552Z,15.55
2019-02-16T12:06:21.272Z,15.54
2019-02-16T12:08:51.982Z,15.53
2019-02-16T12:11:22.699Z,15.49
2019-02-16T12:18:44.225Z,15.60
2019-02-16T12:23:36.956Z,15.53
2019-02-16T12:26:07.648Z,15.56
2019-02-16T12:28:38.313Z,15.55
2019-02-16T12:31:09.085Z,15.60
2019-02-16T12:36:12.100Z,15.60
2019-02-16T12:41:15.157Z,15.60
2019-02-16T12:46:18.210Z,15.65
2019-02-16T12:48:48.876Z,15.84
2019-02-16T12:53:42.047Z,15.79
2019-02-16T12:56:12.741Z,15.72
2019-02-16T12:58:43.406Z,15.63
2019-02-16T13:01:14.115Z,15.57
2019-02-16T13:03:44.813Z,15.52
2019-02-16T13:06:15.503Z,15.48
2019-02-16T13:08:46.193Z,15.52
2019-02-16T13:13:49.299Z,15.43
2019-02-16T13:18:52.341Z,15.36
2019-02-16T13:21:23.019Z,15.30
2019-02-16T13:23:53.728Z,15.24
2019-02-16T13:26:24.402Z,15.20
2019-02-16T13:28:55.118Z,15.18
2019-02-16T13:31:25.809Z,15.20
2019-02-16T13:33:56.515Z,15.18
2019-02-16T13:38:59.573Z,15.21
2019-02-16T13:41:30.227Z,15.18
2019-02-16T13:50:57.562Z,15.16
2019-02-16T13:55:47.318Z,15.17
2019-02-16T13:58:18.016Z,15.14
2019-02-16T14:07:48.338Z,15.19
2019-02-16T14:10:19.023Z,15.19
2019-02-16T14:12:49.722Z,15.19
2019-02-16T14:15:20.440Z,15.14
2019-02-16T14:20:45.255Z,15.18
2019-02-16T14:22:56.072Z,15.18
2019-02-16T14:30:27.858Z,15.22
2019-02-16T14:32:38.652Z,15.27
2019-02-16T14:34:49.500Z,15.29
2019-02-16T14:42:05.056Z,15.19
2019-02-16T14:44:15.866Z,15.15
2019-02-16T14:46:26.679Z,15.10
2019-02-16T14:48:37.611Z,15.08
2019-02-16T14:50:48.436Z,15.11
2019-02-16T14:52:59.297Z,15.07
2019-02-16T14:55:32.010Z,15.00
2019-02-16T14:57:42.824Z,14.96
2019-02-16T14:59:53.626Z,14.96
2019-02-16T15:02:04.478Z,14.96
2019-02-16T15:04:15.277Z,14.90
2019-02-16T15:06:26.125Z,14.89
2019-02-16T15:08:36.959Z,14.90
2019-02-16T15:10:47.733Z,14.85
2019-02-16T15:12:58.554Z,14.81
2019-02-16T15:15:51.024Z,14.77
2019-02-16T15:18:03.722Z,14.76
2019-02-16T15:20:56.235Z,14.73
2019-02-16T15:23:07.040Z,14.71
2019-02-16T15:25:17.843Z,14.66
2019-02-16T15:27:28.674Z,14.69
2019-02-16T15:29:39.472Z,14.71
2019-02-16T15:31:50.270Z,14.70
2019-02-16T15:34:01.086Z,14.65
2019-02-16T15:36:11.909Z,14.69
2019-02-16T15:38:22.747Z,14.68
2019-02-16T15:40:33.569Z,14.69
2019-02-16T15:42:44.406Z,14.67
2019-02-16T15:44:55.218Z,14.64
2019-02-16T15:47:06.012Z,14.58
2019-02-16T15:49:16.856Z,14.60
2019-02-16T15:51:27.683Z,14.65
2019-02-16T15:53:38.516Z,14.54
2019-02-16T15:56:10.826Z,14.39
2019-02-16T15:58:22.158Z,14.25
2019-02-16T16:00:33.097Z,14.04
2019-02-16T16:03:25.555Z,13.92
2019-02-16T16:05:36.361Z,13.78
2019-02-16T16:15:16.724Z,13.52
2019-02-16T16:17:47.432Z,13.46
2019-02-16T16:20:18.131Z,13.21
2019-02-16T16:25:21.194Z,12.64
2019-02-16T16:30:46.005Z,12.18
2019-02-16T16:33:16.720Z,11.98
2019-02-16T16:35:47.429Z,11.71
2019-02-16T16:40:50.493Z,11.30
2019-02-16T16:45:53.530Z,11.03
2019-02-16T16:48:24.230Z,10.88
2019-02-16T16:50:54.928Z,10.70
2019-02-16T16:53:25.628Z,10.50
2019-02-16T16:58:15.426Z,10.20
2019-02-16T17:00:46.126Z,10.18
2019-02-16T17:03:16.814Z,10.08
2019-02-16T17:05:47.532Z,9.97
2019-02-16T17:08:18.228Z,9.88
2019-02-16T17:10:48.944Z,9.76
2019-02-16T17:13:19.619Z,9.66
2019-02-16T17:15:50.344Z,9.51
2019-02-16T17:18:21.020Z,9.35
2019-02-16T17:20:51.744Z,9.32
2019-02-16T17:23:22.434Z,9.21
2019-02-16T17:25:53.145Z,8.97
2019-02-16T17:28:23.838Z,8.79
2019-02-16T17:30:54.531Z,8.69
2019-02-16T17:33:25.234Z,8.65
2019-02-16T17:38:28.303Z,8.54
2019-02-16T17:40:58.996Z,8.44
2019-02-16T17:43:29.721Z,8.30
2019-02-16T17:46:00.429Z,8.12
2019-02-16T17:48:31.187Z,8.02
2019-02-16T17:53:54.121Z,7.78
2019-02-16T17:56:24.906Z,7.66
2019-02-16T17:58:55.617Z,7.61
2019-02-16T18:03:58.707Z,7.55
2019-02-16T18:06:29.419Z,7.49
2019-02-16T18:09:00.132Z,7.38
2019-02-16T18:11:30.836Z,7.29
2019-02-16T18:14:01.564Z,7.24
2019-02-16T18:16:32.399Z,7.26
2019-02-16T18:23:40.735Z,6.93
2019-02-16T18:28:43.887Z,6.69
2019-02-16T18:33:46.941Z,6.66
2019-02-16T18:36:17.633Z,6.65
2019-02-16T18:41:20.679Z,6.66
2019-02-16T18:43:51.503Z,6.61
2019-02-16T18:46:22.288Z,6.46
2019-02-16T18:51:25.381Z,6.17
2019-02-16T18:53:56.123Z,6.09
2019-02-16T18:56:26.792Z,5.99
2019-02-16T18:58:57.466Z,6.00
2019-02-16T19:01:28.208Z,6.06
2019-02-16T19:03:58.917Z,6.07
2019-02-16T19:06:29.663Z,6.13
2019-02-16T19:09:01.292Z,6.09
2019-02-16T19:11:32.042Z,6.04
2019-02-16T19:14:02.759Z,5.97
2019-02-16T19:16:33.506Z,5.80
2019-02-16T19:19:04.199Z,5.73
2019-02-16T19:21:34.917Z,5.68
2019-02-16T19:24:05.601Z,5.67
2019-02-16T19:28:58.672Z,5.69
2019-02-16T19:31:29.421Z,5.63
2019-02-16T19:34:00.106Z,5.53
2019-02-16T19:38:53.716Z,5.51
2019-02-16T19:41:24.450Z,5.49
2019-02-16T19:43:55.124Z,5.45
2019-02-16T19:48:58.172Z,5.15
2019-02-16T19:51:28.877Z,5.03
2019-02-16T19:53:59.584Z,5.09
2019-02-16T19:56:30.441Z,5.14
2019-02-16T19:59:01.209Z,5.13
2019-02-16T20:01:31.897Z,5.07
2019-02-16T20:04:02.683Z,5.04
2019-02-16T20:13:46.905Z,4.87
2019-02-16T20:18:50.001Z,4.88
2019-02-16T20:21:20.724Z,4.82
2019-02-16T20:23:51.428Z,4.70
2019-02-16T20:26:22.082Z,4.59
2019-02-16T20:28:52.801Z,4.54
2019-02-16T20:33:55.872Z,4.48
2019-02-16T20:36:26.567Z,4.42
2019-02-16T20:38:57.266Z,4.36
2019-02-16T20:41:27.996Z,4.25
2019-02-16T20:43:58.703Z,4.11
2019-02-16T20:46:29.443Z,4.10
2019-02-16T20:49:00.142Z,4.06
2019-02-16T20:56:11.455Z,3.96
2019-02-16T20:58:42.215Z,3.97
2019-02-16T21:03:35.151Z,3.98
2019-02-16T21:06:05.841Z,3.90
2019-02-16T21:08:36.538Z,3.87
2019-02-16T21:11:07.236Z,3.82
2019-02-16T21:16:10.308Z,3.74
2019-02-16T21:18:41.006Z,3.73
2019-02-16T21:21:11.718Z,3.73
2019-02-16T21:23:42.421Z,3.76
2019-02-16T21:26:13.129Z,3.71
2019-02-16T21:36:07.143Z,3.71
2019-02-16T21:38:37.834Z,3.66
2019-02-16T21:41:08.504Z,3.68
2019-02-16T21:43:39.220Z,3.67
2019-02-16T21:46:09.910Z,3.53
2019-02-16T21:48:40.630Z,3.40
2019-02-16T21:51:11.290Z,3.33
2019-02-16T21:53:42.068Z,3.25
2019-02-16T21:56:12.747Z,3.21
2019-02-16T21:58:43.675Z,3.21
2019-02-16T22:01:15.398Z,3.18
2019-02-16T22:03:46.170Z,3.14
2019-02-16T22:06:16.868Z,3.15
2019-02-16T22:08:47.590Z,3.14
2019-02-16T22:11:18.251Z,3.10
2019-02-16T22:13:29.089Z,3.07
2019-02-16T22:15:39.933Z,3.11
2019-02-16T22:17:50.755Z,3.16
2019-02-16T22:20:43.227Z,3.19
2019-02-16T22:22:54.045Z,3.22
2019-02-16T22:25:04.988Z,3.18
2019-02-16T22:27:15.798Z,3.10
2019-02-16T22:29:26.618Z,3.09
2019-02-16T22:31:37.434Z,3.16
2019-02-16T22:33:48.257Z,3.20
2019-02-16T22:35:59.064Z,3.20
2019-02-16T22:38:09.898Z,3.08
2019-02-16T22:40:20.759Z,2.96
2019-02-16T22:42:31.573Z,2.93
2019-02-16T22:44:42.389Z,2.96
2019-02-16T22:46:53.206Z,2.97
2019-02-16T22:49:04.011Z,3.00
2019-02-16T22:51:14.939Z,3.03
2019-02-16T22:53:25.735Z,2.92
2019-02-16T22:55:36.591Z,2.80
2019-02-16T22:57:47.412Z,2.79
2019-02-16T22:59:58.242Z,2.78
2019-02-16T23:02:50.675Z,2.77
2019-02-16T23:05:01.598Z,2.75
2019-02-16T23:07:12.400Z,2.67
2019-02-16T23:09:43.203Z,2.63
2019-02-16T23:11:54.123Z,2.62
2019-02-16T23:14:04.911Z,2.59
2019-02-16T23:16:15.764Z,2.57
2019-02-16T23:18:26.663Z,2.58
2019-02-16T23:20:37.493Z,2.58
2019-02-16T23:22:48.315Z,2.62
2019-02-16T23:24:59.118Z,2.66
2019-02-16T23:27:10.029Z,2.69
2019-02-16T23:29:20.833Z,2.67
2019-02-16T23:31:31.654Z,2.62
2019-02-16T23:33:42.472Z,2.63
2019-02-16T23:35:53.349Z,2.60
2019-02-16T23:38:04.133Z,2.57
2019-02-16T23:40:14.946Z,2.57
2019-02-16T23:42:25.824Z,2.57
2019-02-16T23:44:36.624Z,2.54
2019-02-16T23:46:47.453Z,2.46
2019-02-16T23:48:58.240Z,2.36
2019-02-16T23:51:09.054Z,2.23
2019-02-16T23:53:19.860Z,2.19
2019-02-16T23:55:30.667Z,2.23
2019-02-16T23:57:41.505Z,2.27
2019-02-16T23:59:52.305Z,2.31
